»·PEaware :: N724CP KBXK-KCHD

N724CP :: KBXK-KCHD

FLIGHT INFORMATION

Flight Status: Arrived
Operator: Privately registered:
United States
More flights under this callsign
Pilot: Douglas P. (31154)
Aircraft: CESSNA 172 SKYHAWK
(C172)
More flights by this aircraft type
Origin: KBXK Buckeye Mun
United States
Destination: KCHD Chandler Mun
United States
More flights between these airports :: More routes between these airports
Route: 10AZ VPPIR VPGLX
File this flight plan on PilotEdge
Remarks:
Altitude:
(Current/Filed)
5,500ft
Speed:
(Current/Filed)
110kts
Departed: 15-Dec-20 04:46 PM
Arrived: 15-Dec-20 05:19 PM
Distance/Time
Traveled:
45nm/0:32
Distance/Time
To Go:
Arrived

Flight Plot

Page will automatically refresh every two minutes.

Flight plan parsing failed; only flown route is shown


Map Options




Map Legend


Flown Route
Filed Route
Departure Airport
Arrival Airport
Navaid (VOR, NDB)
Fix

Horizontal Profiles

Position Reports

Time Latitude Longitude Heading Altitude Ground
Speed
15-Dec-20 16:27 33.425664 -112.682299 311 1023ft 0kts
15-Dec-20 16:28 33.425664 -112.682299 311 1023ft 0kts
15-Dec-20 16:29 33.425664 -112.682299 311 1023ft 0kts
15-Dec-20 16:30 33.425664 -112.682299 311 1023ft 0kts
15-Dec-20 16:31 33.425664 -112.682299 311 1023ft 0kts
15-Dec-20 16:32 33.425664 -112.682299 311 1023ft 0kts
15-Dec-20 16:33 33.425664 -112.682299 310 1023ft 0kts
15-Dec-20 16:34 33.425664 -112.682299 310 1023ft 0kts
15-Dec-20 16:35 33.425663 -112.682299 310 1023ft 0kts
15-Dec-20 16:36 33.425663 -112.682299 310 1023ft 0kts
15-Dec-20 16:37 33.425688 -112.682341 302 1023ft 2kts
15-Dec-20 16:38 33.425664 -112.682300 311 1023ft 0kts
15-Dec-20 16:39 33.425898 -112.682349 19 1023ft 3kts
15-Dec-20 16:40 33.426111 -112.682346 356 1023ft 0kts
15-Dec-20 16:41 33.426123 -112.682346 0 1023ft 0kts
15-Dec-20 16:42 33.426466 -112.684360 270 1023ft 3kts
15-Dec-20 16:43 33.430006 -112.684941 270 1024ft 0kts
15-Dec-20 16:44 33.430027 -112.685362 264 1025ft 3kts
15-Dec-20 16:45 33.416755 -112.686783 183 1329ft 75kts
15-Dec-20 16:46 33.408541 -112.669791 85 2006ft 84kts
15-Dec-20 16:47 33.393339 -112.655234 162 2716ft 81kts
15-Dec-20 16:48 33.375381 -112.637732 125 3313ft 91kts
15-Dec-20 16:49 33.369266 -112.610514 86 3993ft 86kts
15-Dec-20 16:50 33.369117 -112.582297 99 4624ft 86kts
15-Dec-20 16:51 33.366887 -112.553790 82 5172ft 89kts
15-Dec-20 16:52 33.369067 -112.522671 83 5474ft 110kts
15-Dec-20 16:53 33.370837 -112.483908 90 5475ft 119kts
15-Dec-20 16:54 33.371730 -112.445892 87 5470ft 108kts
15-Dec-20 16:55 33.372748 -112.410421 88 5468ft 105kts
15-Dec-20 16:56 33.372159 -112.375904 129 5574ft 96kts
15-Dec-20 16:57 33.344181 -112.372438 188 5566ft 112kts
15-Dec-20 16:58 33.322118 -112.358104 106 5534ft 106kts
15-Dec-20 16:59 33.313996 -112.323428 99 5380ft 109kts
15-Dec-20 17:00 33.308265 -112.287716 103 5363ft 109kts
15-Dec-20 17:01 33.298903 -112.254064 117 5380ft 107kts
15-Dec-20 17:02 33.283307 -112.222540 120 4515ft 114kts
15-Dec-20 17:03 33.270914 -112.191570 101 3962ft 101kts
15-Dec-20 17:04 33.270227 -112.158091 91 3550ft 101kts
15-Dec-20 17:05 33.268969 -112.124691 93 3524ft 99kts
15-Dec-20 17:06 33.268190 -112.090615 89 3602ft 107kts
15-Dec-20 17:07 33.267106 -112.054351 95 3348ft 108kts
15-Dec-20 17:08 33.264112 -112.018398 96 2866ft 108kts
15-Dec-20 17:09 33.261420 -111.983119 93 2535ft 99kts
15-Dec-20 17:10 33.257285 -111.950099 87 2388ft 99kts
15-Dec-20 17:11 33.258265 -111.918774 84 2662ft 99kts
15-Dec-20 17:12 33.260189 -111.885294 85 2370ft 103kts
15-Dec-20 17:13 33.263191 -111.853820 61 2384ft 93kts
15-Dec-20 17:14 33.279824 -111.829464 51 2361ft 98kts
15-Dec-20 17:15 33.298841 -111.806605 46 2206ft 95kts
15-Dec-20 17:16 33.289377 -111.789366 197 1973ft 87kts
15-Dec-20 17:17 33.273497 -111.806798 226 1382ft 74kts
15-Dec-20 17:18 33.267619 -111.815954 335 1233ft 9kts
15-Dec-20 17:19 33.270927 -111.811679 49 1237ft 15kts
15-Dec-20 17:20 33.272975 -111.810465 292 1239ft 7kts

Navigation Log

Ident Type
Flight plan parsing failed, navigation log unavailable